sensor_id;sensor_type;location;lat;lon;timestamp;pressure;altitude;pressure_sealevel;temperature;humidity
71424;BME280;59240;51.370;-0.486;2022-08-01T00:00:04;101705.66;;;21.23;59.86
71424;BME280;59240;51.370;-0.486;2022-08-01T00:02:34;101706.91;;;21.16;59.88
71424;BME280;59240;51.370;-0.486;2022-08-01T00:05:01;101713.28;;;21.12;60.05
71424;BME280;59240;51.370;-0.486;2022-08-01T00:07:28;101706.28;;;21.11;60.30
71424;BME280;59240;51.370;-0.486;2022-08-01T00:09:54;101693.81;;;20.96;60.25
71424;BME280;59240;51.370;-0.486;2022-08-01T00:12:21;101705.34;;;20.95;60.62
71424;BME280;59240;51.370;-0.486;2022-08-01T00:14:48;101699.25;;;20.93;60.75
71424;BME280;59240;51.370;-0.486;2022-08-01T00:17:14;101675.25;;;20.79;60.80
71424;BME280;59240;51.370;-0.486;2022-08-01T00:19:41;101690.84;;;20.85;60.87
71424;BME280;59240;51.370;-0.486;2022-08-01T00:22:08;101704.25;;;20.82;60.86
71424;BME280;59240;51.370;-0.486;2022-08-01T00:24:35;101672.63;;;20.61;61.31
71424;BME280;59240;51.370;-0.486;2022-08-01T00:27:01;101678.97;;;20.57;61.25
71424;BME280;59240;51.370;-0.486;2022-08-01T00:29:28;101698.94;;;20.64;61.68
71424;BME280;59240;51.370;-0.486;2022-08-01T00:32:15;101690.44;;;20.58;61.80
71424;BME280;59240;51.370;-0.486;2022-08-01T00:34:41;101674.41;;;20.42;61.21
71424;BME280;59240;51.370;-0.486;2022-08-01T00:37:08;101690.16;;;20.45;62.11
71424;BME280;59240;51.370;-0.486;2022-08-01T00:39:41;101670.00;;;20.23;62.21
71424;BME280;59240;51.370;-0.486;2022-08-01T00:42:09;101687.47;;;20.28;62.19
71424;BME280;59240;51.370;-0.486;2022-08-01T00:44:37;101680.19;;;20.14;62.49
71424;BME280;59240;51.370;-0.486;2022-08-01T00:47:04;101703.63;;;20.21;62.49
71424;BME280;59240;51.370;-0.486;2022-08-01T00:49:31;101708.34;;;20.15;63.04
71424;BME280;59240;51.370;-0.486;2022-08-01T00:51:58;101708.56;;;20.10;63.06
71424;BME280;59240;51.370;-0.486;2022-08-01T00:54:26;101706.06;;;20.07;63.62
71424;BME280;59240;51.370;-0.486;2022-08-01T00:56:54;101700.38;;;19.98;63.56
71424;BME280;59240;51.370;-0.486;2022-08-01T00:59:21;101708.31;;;19.98;63.86
71424;BME280;59240;51.370;-0.486;2022-08-01T01:01:51;101696.34;;;19.89;63.64
71424;BME280;59240;51.370;-0.486;2022-08-01T01:04:19;101708.63;;;19.90;63.70
71424;BME280;59240;51.370;-0.486;2022-08-01T01:14:59;101720.38;;;19.84;64.70
71424;BME280;59240;51.370;-0.486;2022-08-01T01:17:36;101686.63;;;19.71;65.25
71424;BME280;59240;51.370;-0.486;2022-08-01T01:20:17;101686.47;;;19.74;64.96
71424;BME280;59240;51.370;-0.486;2022-08-01T01:22:57;101727.09;;;19.91;65.14
71424;BME280;59240;51.370;-0.486;2022-08-01T01:25:49;101728.66;;;19.95;65.01
71424;BME280;59240;51.370;-0.486;2022-08-01T01:30:50;101716.94;;;20.01;65.08
71424;BME280;59240;51.370;-0.486;2022-08-01T01:33:19;101710.22;;;19.94;64.85
71424;BME280;59240;51.370;-0.486;2022-08-01T01:35:50;101695.47;;;19.88;64.83
71424;BME280;59240;51.370;-0.486;2022-08-01T01:38:20;101705.66;;;19.98;64.87
71424;BME280;59240;51.370;-0.486;2022-08-01T01:40:49;101718.25;;;20.11;64.87
71424;BME280;59240;51.370;-0.486;2022-08-01T01:43:17;101719.88;;;20.14;64.66
71424;BME280;59240;51.370;-0.486;2022-08-01T01:45:45;101712.78;;;20.14;64.95
71424;BME280;59240;51.370;-0.486;2022-08-01T01:48:15;101709.09;;;20.18;64.70
71424;BME280;59240;51.370;-0.486;2022-08-01T01:50:45;101709.09;;;20.18;64.85
71424;BME280;59240;51.370;-0.486;2022-08-01T01:53:15;101707.34;;;20.17;64.40
71424;BME280;59240;51.370;-0.486;2022-08-01T01:55:45;101707.50;;;20.14;64.93
71424;BME280;59240;51.370;-0.486;2022-08-01T01:58:17;101704.19;;;20.09;64.53
71424;BME280;59240;51.370;-0.486;2022-08-01T02:00:46;101711.72;;;20.18;64.61
71424;BME280;59240;51.370;-0.486;2022-08-01T02:03:17;101709.22;;;20.15;64.48
71424;BME280;59240;51.370;-0.486;2022-08-01T02:05:46;101660.91;;;19.93;64.25
71424;BME280;59240;51.370;-0.486;2022-08-01T02:08:15;101703.22;;;20.12;64.75
71424;BME280;59240;51.370;-0.486;2022-08-01T02:10:44;101709.28;;;20.14;64.61
71424;BME280;59240;51.370;-0.486;2022-08-01T02:13:32;101695.22;;;20.13;64.39
71424;BME280;59240;51.370;-0.486;2022-08-01T02:16:01;101700.50;;;20.13;63.98
71424;BME280;59240;51.370;-0.486;2022-08-01T02:18:29;101697.19;;;20.08;64.09
71424;BME280;59240;51.370;-0.486;2022-08-01T02:20:57;101675.06;;;19.92;64.03
71424;BME280;59240;51.370;-0.486;2022-08-01T02:23:31;101714.94;;;20.06;64.50
71424;BME280;59240;51.370;-0.486;2022-08-01T02:26:00;101709.66;;;20.06;64.11
71424;BME280;59240;51.370;-0.486;2022-08-01T02:29:10;101706.22;;;20.04;64.22
71424;BME280;59240;51.370;-0.486;2022-08-01T02:31:41;101696.72;;;20.00;64.09
71424;BME280;59240;51.370;-0.486;2022-08-01T02:34:13;101693.13;;;20.01;63.93
71424;BME280;59240;51.370;-0.486;2022-08-01T02:36:44;101697.19;;;20.08;63.97
71424;BME280;59240;51.370;-0.486;2022-08-01T02:39:14;101688.63;;;20.03;64.09
71424;BME280;59240;51.370;-0.486;2022-08-01T02:41:47;101684.91;;;20.07;63.97
71424;BME280;59240;51.370;-0.486;2022-08-01T02:44:24;101689.34;;;20.07;63.92
71424;BME280;59240;51.370;-0.486;2022-08-01T02:46:57;101681.34;;;20.08;63.89
71424;BME280;59240;51.370;-0.486;2022-08-01T02:49:29;101636.69;;;19.83;63.33
71424;BME280;59240;51.370;-0.486;2022-08-01T02:51:59;101682.75;;;19.97;63.91
71424;BME280;59240;51.370;-0.486;2022-08-01T02:54:29;101671.00;;;19.85;63.78
71424;BME280;59240;51.370;-0.486;2022-08-01T02:56:57;101681.31;;;19.89;63.77
71424;BME280;59240;51.370;-0.486;2022-08-01T02:59:26;101675.41;;;19.84;63.95
71424;BME280;59240;51.370;-0.486;2022-08-01T03:01:55;101679.91;;;19.82;63.99
71424;BME280;59240;51.370;-0.486;2022-08-01T03:04:26;101667.31;;;19.68;64.07
71424;BME280;59240;51.370;-0.486;2022-08-01T03:06:55;101685.25;;;19.81;64.33
71424;BME280;59240;51.370;-0.486;2022-08-01T03:09:28;101674.28;;;19.71;64.36
71424;BME280;59240;51.370;-0.486;2022-08-01T03:11:58;101682.91;;;19.75;64.52
71424;BME280;59240;51.370;-0.486;2022-08-01T03:14:28;101666.03;;;19.58;63.91
71424;BME280;59240;51.370;-0.486;2022-08-01T03:16:57;101692.69;;;19.73;64.11
71424;BME280;59240;51.370;-0.486;2022-08-01T03:19:26;101671.25;;;19.60;64.16
71424;BME280;59240;51.370;-0.486;2022-08-01T03:21:55;101696.94;;;19.77;64.13
71424;BME280;59240;51.370;-0.486;2022-08-01T03:24:25;101700.34;;;19.79;64.62
71424;BME280;59240;51.370;-0.486;2022-08-01T03:26:56;101680.88;;;19.61;64.24
71424;BME280;59240;51.370;-0.486;2022-08-01T03:29:25;101697.81;;;19.76;64.63
71424;BME280;59240;51.370;-0.486;2022-08-01T03:31:53;101696.97;;;19.75;64.18
71424;BME280;59240;51.370;-0.486;2022-08-01T03:34:21;101668.31;;;19.66;64.50
71424;BME280;59240;51.370;-0.486;2022-08-01T03:36:55;101690.81;;;19.75;64.55
71424;BME280;59240;51.370;-0.486;2022-08-01T03:39:25;101684.75;;;19.73;64.36
71424;BME280;59240;51.370;-0.486;2022-08-01T03:41:58;101668.59;;;19.60;64.26
71424;BME280;59240;51.370;-0.486;2022-08-01T03:44:27;101691.00;;;19.72;64.31
71424;BME280;59240;51.370;-0.486;2022-08-01T03:47:01;101696.34;;;19.70;64.66
71424;BME280;59240;51.370;-0.486;2022-08-01T03:49:34;101698.25;;;19.66;64.12
71424;BME280;59240;51.370;-0.486;2022-08-01T03:52:04;101676.84;;;19.52;64.23
71424;BME280;59240;51.370;-0.486;2022-08-01T03:54:36;101695.78;;;19.63;65.17
71424;BME280;59240;51.370;-0.486;2022-08-01T03:57:04;101691.53;;;19.59;64.84
71424;BME280;59240;51.370;-0.486;2022-08-01T03:59:31;101652.25;;;19.31;64.77
71424;BME280;59240;51.370;-0.486;2022-08-01T04:02:01;101675.81;;;19.36;64.85
71424;BME280;59240;51.370;-0.486;2022-08-01T04:04:28;101699.84;;;19.50;64.63
71424;BME280;59240;51.370;-0.486;2022-08-01T04:06:55;101706.97;;;19.48;64.56
71424;BME280;59240;51.370;-0.486;2022-08-01T04:09:22;101680.25;;;19.35;65.15
71424;BME280;59240;51.370;-0.486;2022-08-01T04:11:49;101703.63;;;19.45;64.67
71424;BME280;59240;51.370;-0.486;2022-08-01T04:14:16;101717.41;;;19.51;64.80
71424;BME280;59240;51.370;-0.486;2022-08-01T04:16:42;101685.31;;;19.40;64.21
71424;BME280;59240;51.370;-0.486;2022-08-01T04:19:09;101698.84;;;19.53;63.74
71424;BME280;59240;51.370;-0.486;2022-08-01T04:21:36;101694.50;;;19.52;63.84
71424;BME280;59240;51.370;-0.486;2022-08-01T04:24:07;101670.41;;;19.39;63.95
71424;BME280;59240;51.370;-0.486;2022-08-01T04:26:36;101697.06;;;19.53;64.14
71424;BME280;59240;51.370;-0.486;2022-08-01T04:29:04;101677.28;;;19.43;63.63
71424;BME280;59240;51.370;-0.486;2022-08-01T04:31:34;101696.56;;;19.45;63.72
71424;BME280;59240;51.370;-0.486;2022-08-01T04:34:04;101702.69;;;19.46;63.45
71424;BME280;59240;51.370;-0.486;2022-08-01T04:36:33;101690.59;;;19.40;64.24
71424;BME280;59240;51.370;-0.486;2022-08-01T04:39:04;101693.13;;;19.43;63.67
71424;BME280;59240;51.370;-0.486;2022-08-01T04:41:32;101681.97;;;19.36;63.78
71424;BME280;59240;51.370;-0.486;2022-08-01T04:44:00;101696.09;;;19.35;63.89
71424;BME280;59240;51.370;-0.486;2022-08-01T04:46:27;101692.72;;;19.32;64.06
71424;BME280;59240;51.370;-0.486;2022-08-01T04:48:55;101689.66;;;19.22;64.58
71424;BME280;59240;51.370;-0.486;2022-08-01T04:51:22;101690.75;;;19.17;63.92
71424;BME280;59240;51.370;-0.486;2022-08-01T04:53:49;101718.41;;;19.28;64.51
71424;BME280;59240;51.370;-0.486;2022-08-01T04:56:19;101714.97;;;19.26;64.86
71424;BME280;59240;51.370;-0.486;2022-08-01T04:58:47;101730.66;;;19.31;64.10
71424;BME280;59240;51.370;-0.486;2022-08-01T05:01:14;101684.16;;;19.06;64.71
71424;BME280;59240;51.370;-0.486;2022-08-01T05:03:40;101728.78;;;19.33;64.38
71424;BME280;59240;51.370;-0.486;2022-08-01T05:06:07;101726.81;;;19.38;64.87
71424;BME280;59240;51.370;-0.486;2022-08-01T05:08:34;101720.09;;;19.31;64.80
71424;BME280;59240;51.370;-0.486;2022-08-01T05:11:02;101719.06;;;19.33;64.38
71424;BME280;59240;51.370;-0.486;2022-08-01T05:13:29;101731.94;;;19.41;64.55
71424;BME280;59240;51.370;-0.486;2022-08-01T05:15:56;101729.19;;;19.44;64.83
71424;BME280;59240;51.370;-0.486;2022-08-01T05:18:24;101708.50;;;19.33;64.25
71424;BME280;59240;51.370;-0.486;2022-08-01T05:20:54;101729.97;;;19.46;64.29
71424;BME280;59240;51.370;-0.486;2022-08-01T05:23:21;101733.28;;;19.51;64.45
71424;BME280;59240;51.370;-0.486;2022-08-01T05:26:07;101738.41;;;19.54;64.57
71424;BME280;59240;51.370;-0.486;2022-08-01T05:28:35;101726.28;;;19.50;64.75
71424;BME280;59240;51.370;-0.486;2022-08-01T05:31:02;101700.91;;;19.46;64.24
71424;BME280;59240;51.370;-0.486;2022-08-01T05:33:28;101723.19;;;19.61;64.86
71424;BME280;59240;51.370;-0.486;2022-08-01T05:35:55;101718.75;;;19.61;64.33
71424;BME280;59240;51.370;-0.486;2022-08-01T05:38:21;101723.22;;;19.80;64.34
71424;BME280;59240;51.370;-0.486;2022-08-01T05:40:48;101700.56;;;19.93;63.51
71424;BME280;59240;51.370;-0.486;2022-08-01T05:43:15;101704.59;;;20.38;63.08
71424;BME280;59240;51.370;-0.486;2022-08-01T05:45:41;101700.88;;;20.61;62.41
71424;BME280;59240;51.370;-0.486;2022-08-01T05:48:08;101705.78;;;20.86;60.92
71424;BME280;59240;51.370;-0.486;2022-08-01T05:50:34;101732.78;;;21.11;61.07
71424;BME280;59240;51.370;-0.486;2022-08-01T05:53:01;101727.16;;;21.17;60.66
71424;BME280;59240;51.370;-0.486;2022-08-01T05:55:28;101739.03;;;21.27;60.60
71424;BME280;59240;51.370;-0.486;2022-08-01T05:57:54;101732.28;;;21.20;60.61
71424;BME280;59240;51.370;-0.486;2022-08-01T06:00:21;101710.34;;;21.01;60.58
71424;BME280;59240;51.370;-0.486;2022-08-01T06:02:48;101736.81;;;21.18;60.69
71424;BME280;59240;51.370;-0.486;2022-08-01T06:05:15;101730.44;;;21.05;60.31
71424;BME280;59240;51.370;-0.486;2022-08-01T06:07:42;101729.97;;;20.97;60.72
71424;BME280;59240;51.370;-0.486;2022-08-01T06:10:08;101726.09;;;20.87;60.99
71424;BME280;59240;51.370;-0.486;2022-08-01T06:12:36;101741.16;;;20.85;61.26
71424;BME280;59240;51.370;-0.486;2022-08-01T06:15:04;101728.47;;;20.74;61.35
71424;BME280;59240;51.370;-0.486;2022-08-01T06:17:31;101738.03;;;20.76;61.67
71424;BME280;59240;51.370;-0.486;2022-08-01T06:19:57;101701.25;;;20.53;61.43
71424;BME280;59240;51.370;-0.486;2022-08-01T06:22:24;101710.75;;;20.57;61.96
71424;BME280;59240;51.370;-0.486;2022-08-01T06:24:51;101742.78;;;20.70;61.88
71424;BME280;59240;51.370;-0.486;2022-08-01T06:27:18;101742.88;;;20.68;61.81
71424;BME280;59240;51.370;-0.486;2022-08-01T06:29:47;101737.78;;;20.64;62.14
71424;BME280;59240;51.370;-0.486;2022-08-01T06:32:22;101720.66;;;20.54;61.93
71424;BME280;59240;51.370;-0.486;2022-08-01T06:34:53;101748.75;;;20.56;62.09
71424;BME280;59240;51.370;-0.486;2022-08-01T06:37:21;101735.97;;;20.47;62.51
71424;BME280;59240;51.370;-0.486;2022-08-01T06:39:48;101740.41;;;20.46;62.52
71424;BME280;59240;51.370;-0.486;2022-08-01T06:42:16;101730.78;;;20.44;62.25
71424;BME280;59240;51.370;-0.486;2022-08-01T06:44:43;101748.38;;;20.64;62.88
71424;BME280;59240;51.370;-0.486;2022-08-01T06:47:09;101741.94;;;20.69;62.29
71424;BME280;59240;51.370;-0.486;2022-08-01T06:49:36;101743.25;;;20.78;62.44
71424;BME280;59240;51.370;-0.486;2022-08-01T06:52:03;101731.16;;;20.72;62.38
71424;BME280;59240;51.370;-0.486;2022-08-01T06:54:30;101748.03;;;20.89;61.59
71424;BME280;59240;51.370;-0.486;2022-08-01T06:56:57;101734.94;;;20.86;61.82
71424;BME280;59240;51.370;-0.486;2022-08-01T06:59:24;101720.59;;;20.72;61.94
71424;BME280;59240;51.370;-0.486;2022-08-01T07:01:50;101758.16;;;20.98;61.80
71424;BME280;59240;51.370;-0.486;2022-08-01T07:04:17;101755.69;;;20.95;61.84
71424;BME280;59240;51.370;-0.486;2022-08-01T07:06:43;101734.94;;;20.86;61.71
71424;BME280;59240;51.370;-0.486;2022-08-01T07:09:10;101770.09;;;21.07;61.99
71424;BME280;59240;51.370;-0.486;2022-08-01T07:11:40;101769.09;;;21.09;61.36
71424;BME280;59240;51.370;-0.486;2022-08-01T07:14:06;101767.84;;;21.16;61.61
71424;BME280;59240;51.370;-0.486;2022-08-01T07:16:33;101757.25;;;21.16;61.52
71424;BME280;59240;51.370;-0.486;2022-08-01T07:19:00;101725.38;;;21.00;61.22
71424;BME280;59240;51.370;-0.486;2022-08-01T07:21:26;101761.97;;;21.28;61.24
71424;BME280;59240;51.370;-0.486;2022-08-01T07:24:08;101756.94;;;21.22;61.10
71424;BME280;59240;51.370;-0.486;2022-08-01T07:26:44;101746.25;;;21.24;60.65
71424;BME280;59240;51.370;-0.486;2022-08-01T07:29:23;101764.22;;;21.36;60.77
71424;BME280;59240;51.370;-0.486;2022-08-01T07:31:51;101763.09;;;21.40;60.97
71424;BME280;59240;51.370;-0.486;2022-08-01T07:34:19;101771.78;;;21.44;60.56
71424;BME280;59240;51.370;-0.486;2022-08-01T07:36:46;101748.84;;;21.43;60.67
71424;BME280;59240;51.370;-0.486;2022-08-01T07:39:12;101765.13;;;21.52;60.35
71424;BME280;59240;51.370;-0.486;2022-08-01T07:41:39;101764.13;;;21.55;59.63
71424;BME280;59240;51.370;-0.486;2022-08-01T07:44:25;101769.09;;;21.61;59.95
71424;BME280;59240;51.370;-0.486;2022-08-01T07:46:54;101780.94;;;21.71;59.74
71424;BME280;59240;51.370;-0.486;2022-08-01T07:49:21;101779.59;;;21.80;59.24
71424;BME280;59240;51.370;-0.486;2022-08-01T07:51:48;101776.69;;;21.84;59.40
71424;BME280;59240;51.370;-0.486;2022-08-01T07:54:30;101793.69;;;21.98;59.46
71424;BME280;59240;51.370;-0.486;2022-08-01T07:56:59;101773.03;;;22.03;59.22
71424;BME280;59240;51.370;-0.486;2022-08-01T07:59:26;101774.38;;;22.11;58.75
71424;BME280;59240;51.370;-0.486;2022-08-01T08:01:53;101793.16;;;22.24;58.64
71424;BME280;59240;51.370;-0.486;2022-08-01T08:04:19;101782.69;;;22.21;58.56
71424;BME280;59240;51.370;-0.486;2022-08-01T08:06:46;101756.19;;;22.04;57.97
71424;BME280;59240;51.370;-0.486;2022-08-01T08:09:14;101785.53;;;22.18;57.99
71424;BME280;59240;51.370;-0.486;2022-08-01T08:11:45;101786.47;;;22.17;58.01
71424;BME280;59240;51.370;-0.486;2022-08-01T08:14:17;101779.78;;;22.10;58.50
71424;BME280;59240;51.370;-0.486;2022-08-01T08:16:45;101782.88;;;22.18;58.24
71424;BME280;59240;51.370;-0.486;2022-08-01T08:19:11;101762.75;;;22.14;58.24
71424;BME280;59240;51.370;-0.486;2022-08-01T08:21:39;101793.31;;;22.37;58.50
71424;BME280;59240;51.370;-0.486;2022-08-01T08:24:07;101778.69;;;22.46;57.49
71424;BME280;59240;51.370;-0.486;2022-08-01T08:26:59;101786.91;;;22.73;57.01
71424;BME280;59240;51.370;-0.486;2022-08-01T08:29:27;101786.38;;;22.82;56.71
71424;BME280;59240;51.370;-0.486;2022-08-01T08:31:56;101790.16;;;22.93;56.28
71424;BME280;59240;51.370;-0.486;2022-08-01T08:34:25;101784.50;;;23.00;56.54
71424;BME280;59240;51.370;-0.486;2022-08-01T08:36:53;101776.69;;;22.97;56.17
71424;BME280;59240;51.370;-0.486;2022-08-01T08:39:21;101789.72;;;23.01;55.50
71424;BME280;59240;51.370;-0.486;2022-08-01T08:41:48;101794.94;;;23.03;56.37
71424;BME280;59240;51.370;-0.486;2022-08-01T08:44:17;101775.75;;;22.98;55.76
71424;BME280;59240;51.370;-0.486;2022-08-01T08:46:50;101783.59;;;23.15;55.30
71424;BME280;59240;51.370;-0.486;2022-08-01T08:49:25;101764.00;;;23.02;55.14
71424;BME280;59240;51.370;-0.486;2022-08-01T08:52:01;101756.03;;;23.02;55.62
71424;BME280;59240;51.370;-0.486;2022-08-01T08:54:29;101749.84;;;23.01;55.52
71424;BME280;59240;51.370;-0.486;2022-08-01T08:56:58;101787.41;;;23.25;54.51
71424;BME280;59240;51.370;-0.486;2022-08-01T08:59:26;101786.47;;;23.26;55.31
71424;BME280;59240;51.370;-0.486;2022-08-01T09:01:52;101777.38;;;23.30;54.90
71424;BME280;59240;51.370;-0.486;2022-08-01T09:04:20;101774.94;;;23.41;54.25
71424;BME280;59240;51.370;-0.486;2022-08-01T09:06:52;101745.09;;;23.36;53.72
71424;BME280;59240;51.370;-0.486;2022-08-01T09:09:19;101772.09;;;23.59;54.19
71424;BME280;59240;51.370;-0.486;2022-08-01T09:11:46;101752.50;;;23.60;53.43
71424;BME280;59240;51.370;-0.486;2022-08-01T09:14:30;101769.66;;;23.84;52.72
71424;BME280;59240;51.370;-0.486;2022-08-01T09:17:06;101776.81;;;23.98;52.04
71424;BME280;59240;51.370;-0.486;2022-08-01T09:19:40;101753.22;;;23.92;52.91
71424;BME280;59240;51.370;-0.486;2022-08-01T09:22:10;101756.00;;;23.90;52.54
71424;BME280;59240;51.370;-0.486;2022-08-01T09:24:38;101736.03;;;23.69;52.57
71424;BME280;59240;51.370;-0.486;2022-08-01T09:27:18;101773.66;;;23.91;52.48
71424;BME280;59240;51.370;-0.486;2022-08-01T09:29:47;101764.34;;;23.98;52.30
71424;BME280;59240;51.370;-0.486;2022-08-01T09:32:22;101764.72;;;24.07;52.02
71424;BME280;59240;51.370;-0.486;2022-08-01T09:34:51;101777.34;;;24.17;52.34
71424;BME280;59240;51.370;-0.486;2022-08-01T09:37:30;101750.47;;;23.93;51.89
71424;BME280;59240;51.370;-0.486;2022-08-01T09:40:03;101777.28;;;24.05;51.93
71424;BME280;59240;51.370;-0.486;2022-08-01T09:42:29;101790.22;;;23.96;51.96
71424;BME280;59240;51.370;-0.486;2022-08-01T09:44:56;101732.81;;;23.64;52.33
71424;BME280;59240;51.370;-0.486;2022-08-01T09:47:36;101784.09;;;23.94;51.97
71424;BME280;59240;51.370;-0.486;2022-08-01T09:50:05;101757.44;;;23.82;52.24
71424;BME280;59240;51.370;-0.486;2022-08-01T09:52:36;101778.78;;;23.94;52.04
71424;BME280;59240;51.370;-0.486;2022-08-01T09:55:07;101779.00;;;23.91;51.76
71424;BME280;59240;51.370;-0.486;2022-08-01T09:57:34;101763.59;;;23.82;51.83
71424;BME280;59240;51.370;-0.486;2022-08-01T10:00:01;101770.63;;;23.83;51.43
71424;BME280;59240;51.370;-0.486;2022-08-01T10:02:34;101767.59;;;23.75;51.80
71424;BME280;59240;51.370;-0.486;2022-08-01T10:05:04;101800.66;;;23.85;51.89
71424;BME280;59240;51.370;-0.486;2022-08-01T10:07:35;101796.75;;;23.77;51.85
71424;BME280;59240;51.370;-0.486;2022-08-01T10:10:14;101790.28;;;23.66;52.53
71424;BME280;59240;51.370;-0.486;2022-08-01T10:12:42;101788.88;;;23.61;52.23
71424;BME280;59240;51.370;-0.486;2022-08-01T10:15:16;101781.38;;;23.52;52.45
71424;BME280;59240;51.370;-0.486;2022-08-01T10:17:53;101782.06;;;23.55;52.21
71424;BME280;59240;51.370;-0.486;2022-08-01T10:20:28;101803.09;;;23.74;52.53
71424;BME280;59240;51.370;-0.486;2022-08-01T10:22:59;101803.31;;;23.85;51.98
71424;BME280;59240;51.370;-0.486;2022-08-01T10:25:35;101775.34;;;24.07;51.08
71424;BME280;59240;51.370;-0.486;2022-08-01T10:28:16;101802.16;;;24.46;50.08
71424;BME280;59240;51.370;-0.486;2022-08-01T10:30:50;101791.69;;;24.58;50.48
71424;BME280;59240;51.370;-0.486;2022-08-01T10:33:21;101781.03;;;24.58;49.99
71424;BME280;59240;51.370;-0.486;2022-08-01T10:36:08;101790.31;;;24.65;50.00
71424;BME280;59240;51.370;-0.486;2022-08-01T10:38:36;101788.59;;;24.64;50.08
71424;BME280;59240;51.370;-0.486;2022-08-01T10:41:04;101789.88;;;24.58;50.19
71424;BME280;59240;51.370;-0.486;2022-08-01T10:43:33;101778.75;;;24.51;50.40
71424;BME280;59240;51.370;-0.486;2022-08-01T10:46:03;101777.03;;;24.50;50.39
71424;BME280;59240;51.370;-0.486;2022-08-01T10:48:41;101742.63;;;24.33;50.08
71424;BME280;59240;51.370;-0.486;2022-08-01T10:51:11;101766.78;;;24.44;50.45
71424;BME280;59240;51.370;-0.486;2022-08-01T10:54:05;101787.25;;;24.44;50.24
71424;BME280;59240;51.370;-0.486;2022-08-01T10:56:49;101744.63;;;24.15;49.98
71424;BME280;59240;51.370;-0.486;2022-08-01T10:59:21;101777.63;;;24.27;50.18
71424;BME280;59240;51.370;-0.486;2022-08-01T11:02:09;101764.59;;;24.08;50.39
71424;BME280;59240;51.370;-0.486;2022-08-01T11:07:17;101749.66;;;24.34;51.37
71424;BME280;59240;51.370;-0.486;2022-08-01T11:09:58;101745.56;;;24.70;50.22
71424;BME280;59240;51.370;-0.486;2022-08-01T11:12:40;101776.63;;;25.10;50.00
71424;BME280;59240;51.370;-0.486;2022-08-01T11:17:36;101771.13;;;25.64;48.60
71424;BME280;59240;51.370;-0.486;2022-08-01T11:20:15;101774.56;;;25.92;47.67
71424;BME280;59240;51.370;-0.486;2022-08-01T11:25:26;101770.09;;;25.80;47.59
71424;BME280;59240;51.370;-0.486;2022-08-01T11:38:45;101754.81;;;26.92;46.36
71424;BME280;59240;51.370;-0.486;2022-08-01T11:41:16;101748.00;;;27.23;44.99
71424;BME280;59240;51.370;-0.486;2022-08-01T11:44:07;101745.69;;;27.30;43.71
71424;BME280;59240;51.370;-0.486;2022-08-01T11:46:57;101751.81;;;27.32;44.26
71424;BME280;59240;51.370;-0.486;2022-08-01T11:52:18;101739.44;;;28.31;42.48
71424;BME280;59240;51.370;-0.486;2022-08-01T11:54:53;101742.75;;;28.99;41.14
71424;BME280;59240;51.370;-0.486;2022-08-01T11:57:22;101735.19;;;29.56;39.95
71424;BME280;59240;51.370;-0.486;2022-08-01T12:00:00;101729.09;;;30.15;38.60
71424;BME280;59240;51.370;-0.486;2022-08-01T12:02:32;101731.69;;;30.65;37.64
71424;BME280;59240;51.370;-0.486;2022-08-01T12:07:35;101734.94;;;31.17;36.40
71424;BME280;59240;51.370;-0.486;2022-08-01T12:10:10;101736.06;;;31.43;35.32
71424;BME280;59240;51.370;-0.486;2022-08-01T12:12:49;101733.41;;;31.71;34.95
71424;BME280;59240;51.370;-0.486;2022-08-01T12:15:18;101733.31;;;31.90;33.97
71424;BME280;59240;51.370;-0.486;2022-08-01T12:17:47;101723.63;;;31.97;34.09
71424;BME280;59240;51.370;-0.486;2022-08-01T12:20:30;101719.03;;;32.07;33.36
71424;BME280;59240;51.370;-0.486;2022-08-01T12:23:00;101711.13;;;32.24;33.12
71424;BME280;59240;51.370;-0.486;2022-08-01T12:25:27;101697.25;;;32.19;32.67
71424;BME280;59240;51.370;-0.486;2022-08-01T12:27:53;101706.13;;;32.29;32.27
71424;BME280;59240;51.370;-0.486;2022-08-01T12:30:23;101720.81;;;32.44;32.04
71424;BME280;59240;51.370;-0.486;2022-08-01T12:32:51;101720.50;;;32.47;31.82
71424;BME280;59240;51.370;-0.486;2022-08-01T12:35:26;101679.16;;;32.29;32.14
71424;BME280;59240;51.370;-0.486;2022-08-01T12:37:56;101698.22;;;32.45;32.73
71424;BME280;59240;51.370;-0.486;2022-08-01T12:40:26;101704.72;;;32.34;32.29
71424;BME280;59240;51.370;-0.486;2022-08-01T12:43:01;101652.22;;;31.83;32.11
71424;BME280;59240;51.370;-0.486;2022-08-01T12:45:33;101694.13;;;31.78;33.02
71424;BME280;59240;51.370;-0.486;2022-08-01T12:48:00;101690.06;;;31.54;33.32
71424;BME280;59240;51.370;-0.486;2022-08-01T12:50:29;101677.44;;;31.08;33.82
71424;BME280;59240;51.370;-0.486;2022-08-01T12:52:58;101645.66;;;30.55;33.82
71424;BME280;59240;51.370;-0.486;2022-08-01T12:55:26;101656.84;;;30.70;34.32
71424;BME280;59240;51.370;-0.486;2022-08-01T12:58:10;101676.91;;;30.85;33.67
71424;BME280;59240;51.370;-0.486;2022-08-01T13:00:44;101679.16;;;30.99;33.21
71424;BME280;59240;51.370;-0.486;2022-08-01T13:03:19;101677.13;;;31.21;32.66
71424;BME280;59240;51.370;-0.486;2022-08-01T13:05:48;101674.97;;;31.34;32.31
71424;BME280;59240;51.370;-0.486;2022-08-01T13:08:20;101658.56;;;31.18;32.97
71424;BME280;59240;51.370;-0.486;2022-08-01T13:10:48;101646.50;;;31.22;32.99
71424;BME280;59240;51.370;-0.486;2022-08-01T13:13:17;101630.91;;;31.35;32.64
71424;BME280;59240;51.370;-0.486;2022-08-01T13:16:03;101680.72;;;31.49;32.60
71424;BME280;59240;51.370;-0.486;2022-08-01T13:18:32;101665.50;;;31.20;32.30
71424;BME280;59240;51.370;-0.486;2022-08-01T13:21:16;101677.25;;;31.29;32.41
71424;BME280;59240;51.370;-0.486;2022-08-01T13:24:05;101672.81;;;31.47;31.84
71424;BME280;59240;51.370;-0.486;2022-08-01T13:29:14;101671.91;;;32.11;30.92
71424;BME280;59240;51.370;-0.486;2022-08-01T13:31:41;101664.94;;;32.36;30.21
71424;BME280;59240;51.370;-0.486;2022-08-01T13:34:09;101657.59;;;32.64;29.58